createdAt,value
2018-10-01T00:00:32.738Z,4.30
2018-10-01T00:01:32.723Z,3.60
2018-10-01T00:02:32.710Z,4.00
2018-10-01T00:03:32.785Z,3.80
2018-10-01T00:04:32.689Z,3.90
2018-10-01T00:05:32.687Z,3.80
2018-10-01T00:06:32.665Z,3.80
2018-10-01T00:07:32.659Z,4.40
2018-10-01T00:08:32.648Z,3.80
2018-10-01T00:09:32.628Z,3.90
2018-10-01T00:10:32.629Z,4.00
2018-10-01T00:11:32.612Z,4.00
2018-10-01T00:12:32.599Z,3.90
2018-10-01T00:13:32.585Z,3.80
2018-10-01T00:14:32.574Z,4.20
2018-10-01T00:15:32.607Z,4.20
2018-10-01T00:16:32.555Z,4.10
2018-10-01T00:17:32.538Z,4.00
2018-10-01T00:18:32.533Z,3.90
2018-10-01T00:19:32.514Z,3.90
2018-10-01T00:20:32.530Z,3.90
2018-10-01T00:21:32.494Z,3.90
2018-10-01T00:22:32.485Z,4.10
2018-10-01T00:23:32.468Z,3.90
2018-10-01T00:24:32.461Z,4.20
2018-10-01T00:25:32.459Z,3.90
2018-10-01T00:26:32.442Z,3.90
2018-10-01T00:27:32.424Z,3.90
2018-10-01T00:28:32.416Z,3.90
2018-10-01T00:29:32.401Z,4.30
2018-10-01T00:30:32.410Z,4.20
2018-10-01T00:31:32.381Z,4.00
2018-10-01T00:32:32.366Z,4.30
2018-10-01T00:33:32.356Z,4.50
2018-10-01T00:34:32.350Z,4.50
2018-10-01T00:35:32.336Z,4.50
2018-10-01T00:36:32.331Z,4.60
2018-10-01T00:37:32.323Z,4.60
2018-10-01T00:38:32.329Z,4.40
2018-10-01T00:39:32.295Z,5.10
2018-10-01T00:40:32.280Z,4.60
2018-10-01T00:41:32.275Z,4.60
2018-10-01T00:42:32.254Z,4.60
2018-10-01T00:43:32.246Z,4.90
2018-10-01T00:44:32.234Z,4.90
2018-10-01T00:45:32.221Z,4.30
2018-10-01T00:46:32.220Z,4.60
2018-10-01T00:47:32.198Z,4.60
2018-10-01T00:48:32.188Z,4.40
2018-10-01T00:49:32.179Z,4.50
2018-10-01T00:50:32.163Z,4.50
2018-10-01T00:51:32.162Z,4.60
2018-10-01T00:52:32.141Z,4.50
2018-10-01T00:53:32.153Z,4.70
2018-10-01T00:54:32.119Z,4.20
2018-10-01T00:55:32.108Z,4.70
2018-10-01T00:56:32.117Z,4.40
2018-10-01T00:57:32.085Z,4.30
2018-10-01T00:58:32.073Z,5.10
2018-10-01T00:59:32.064Z,4.70
2018-10-01T01:00:32.049Z,4.50
2018-10-01T01:01:32.049Z,4.80
2018-10-01T01:02:32.024Z,4.90
2018-10-01T01:03:32.017Z,4.30
2018-10-01T01:04:32.007Z,5.00
2018-10-01T01:05:31.991Z,4.80
2018-10-01T01:06:31.992Z,5.10
2018-10-01T01:07:31.971Z,4.70
2018-10-01T01:08:31.961Z,4.80
2018-10-01T01:09:31.947Z,4.60
2018-10-01T01:10:31.936Z,4.20
2018-10-01T01:11:31.935Z,5.00
2018-10-01T01:12:31.914Z,4.30
2018-10-01T01:13:31.903Z,4.60
2018-10-01T01:14:31.890Z,4.50
2018-10-01T01:15:31.883Z,4.40
2018-10-01T01:16:31.885Z,4.90
2018-10-01T01:17:31.859Z,4.40
2018-10-01T01:18:31.857Z,4.20
2018-10-01T01:19:31.839Z,4.50
2018-10-01T01:20:31.828Z,4.60
2018-10-01T01:21:31.823Z,4.50
2018-10-01T01:22:31.803Z,4.80
2018-10-01T01:23:31.795Z,4.60
2018-10-01T01:24:31.782Z,4.20
2018-10-01T01:25:31.771Z,5.20
2018-10-01T01:26:31.772Z,4.50
2018-10-01T01:27:31.770Z,4.60
2018-10-01T01:28:31.741Z,4.80
2018-10-01T01:29:31.725Z,4.80
2018-10-01T01:30:31.716Z,4.80
2018-10-01T01:31:31.703Z,4.60
2018-10-01T01:32:31.702Z,4.40
2018-10-01T01:33:31.685Z,4.40
2018-10-01T01:34:31.672Z,4.80
2018-10-01T01:35:31.662Z,4.40
2018-10-01T01:36:31.652Z,4.50
2018-10-01T01:37:31.654Z,4.80
2018-10-01T01:38:31.631Z,4.40
2018-10-01T01:39:31.615Z,5.10
2018-10-01T01:40:31.608Z,5.00
2018-10-01T01:41:31.594Z,5.10
2018-10-01T01:42:31.595Z,5.30
2018-10-01T01:43:31.575Z,5.00
2018-10-01T01:44:31.569Z,5.00
2018-10-01T01:45:31.553Z,5.30
2018-10-01T01:46:31.543Z,5.20
2018-10-01T01:47:31.541Z,5.00
2018-10-01T01:48:31.523Z,5.00
2018-10-01T01:49:31.510Z,5.50
2018-10-01T01:50:31.500Z,5.50
2018-10-01T01:51:31.487Z,5.80
2018-10-01T01:52:31.487Z,5.30
2018-10-01T01:53:31.463Z,5.40
2018-10-01T01:54:31.455Z,5.40
2018-10-01T01:55:31.443Z,5.20
2018-10-01T01:56:31.440Z,5.70
2018-10-01T01:57:31.437Z,5.80
2018-10-01T01:58:31.411Z,5.60
2018-10-01T01:59:31.400Z,5.70
2018-10-01T02:00:31.389Z,5.80
2018-10-01T02:01:31.384Z,5.90
2018-10-01T02:02:31.381Z,5.90
2018-10-01T02:03:31.357Z,5.30
2018-10-01T02:04:31.343Z,5.80
2018-10-01T02:05:31.333Z,6.00
2018-10-01T02:06:31.325Z,5.70
2018-10-01T02:07:31.321Z,5.60
2018-10-01T02:08:31.301Z,5.90
2018-10-01T02:09:31.297Z,6.00
2018-10-01T02:10:31.280Z,5.90
2018-10-01T02:11:31.269Z,6.20
2018-10-01T02:12:31.272Z,6.20
2018-10-01T02:13:31.256Z,6.10
2018-10-01T02:14:31.234Z,6.10
2018-10-01T02:15:31.226Z,5.90
2018-10-01T02:16:31.216Z,6.00
2018-10-01T02:17:31.213Z,5.80
2018-10-01T02:18:31.193Z,6.30
2018-10-01T02:21:15.137Z,6.00
2018-10-01T02:21:39.401Z,6.60
2018-10-01T02:24:08.590Z,6.10
2018-10-01T02:24:47.581Z,6.10
2018-10-01T02:25:47.601Z,5.80
2018-10-01T02:26:47.559Z,5.90
2018-10-01T02:27:47.559Z,6.00
2018-10-01T02:28:47.538Z,5.70
2018-10-01T02:29:47.526Z,5.70
2018-10-01T02:30:47.523Z,5.90
2018-10-01T02:31:47.508Z,5.50
2018-10-01T02:32:47.536Z,6.90
2018-10-01T02:33:47.482Z,6.50
2018-10-01T02:34:47.470Z,7.00
2018-10-01T02:35:47.462Z,6.60
2018-10-01T02:36:47.451Z,7.60
2018-10-01T02:37:47.452Z,7.60
2018-10-01T02:38:47.435Z,8.00
2018-10-01T02:39:47.428Z,7.60
2018-10-01T02:40:47.406Z,8.00
2018-10-01T02:41:47.401Z,8.00
2018-10-01T02:42:47.395Z,8.90
2018-10-01T02:43:47.373Z,8.20
2018-10-01T02:44:47.365Z,8.50
2018-10-01T02:45:47.352Z,8.60
2018-10-01T02:46:47.340Z,9.10
2018-10-01T02:47:47.387Z,9.40
2018-10-01T02:48:47.326Z,9.60
2018-10-01T02:49:47.311Z,9.20
2018-10-01T02:50:47.297Z,9.50
2018-10-01T02:51:47.283Z,9.60
2018-10-01T02:52:47.274Z,9.50
2018-10-01T02:53:47.274Z,9.70
2018-10-01T02:54:47.249Z,9.60
2018-10-01T02:55:47.264Z,9.90
2018-10-01T02:56:47.234Z,10.20
2018-10-01T02:57:47.217Z,9.90
2018-10-01T02:58:47.224Z,10.40
2018-10-01T02:59:47.194Z,9.60
2018-10-01T03:00:47.183Z,10.30
2018-10-01T03:01:47.171Z,10.20
2018-10-01T03:02:47.163Z,10.80
2018-10-01T03:03:47.161Z,10.70
2018-10-01T03:04:47.139Z,11.10
2018-10-01T03:05:47.127Z,10.40
2018-10-01T03:06:47.117Z,10.60
2018-10-01T03:07:47.106Z,9.90
2018-10-01T03:08:47.110Z,10.60
2018-10-01T03:09:47.083Z,10.40
2018-10-01T03:10:47.074Z,11.10
2018-10-01T03:11:47.063Z,10.90
2018-10-01T03:12:47.051Z,11.20
2018-10-01T03:13:47.052Z,11.20
2018-10-01T03:14:47.031Z,11.20
2018-10-01T03:15:47.019Z,10.80
2018-10-01T03:16:47.010Z,11.20
2018-10-01T03:17:46.995Z,10.90
2018-10-01T03:18:46.997Z,11.10
2018-10-01T03:19:46.983Z,11.20
2018-10-01T03:20:46.962Z,11.50
2018-10-01T03:21:46.952Z,11.50
2018-10-01T03:22:46.939Z,12.00
2018-10-01T03:23:46.941Z,11.90
2018-10-01T03:24:46.918Z,11.70
2018-10-01T03:25:46.906Z,12.40
2018-10-01T03:26:46.895Z,12.30
2018-10-01T03:27:46.888Z,12.80
2018-10-01T03:28:46.887Z,13.30
2018-10-01T03:29:46.868Z,13.30
2018-10-01T03:30:46.850Z,13.40
2018-10-01T03:31:46.844Z,13.80
2018-10-01T03:32:46.828Z,13.20
2018-10-01T03:33:46.831Z,13.70
2018-10-01T03:34:46.807Z,14.10
2018-10-01T03:35:46.794Z,13.20
2018-10-01T03:36:46.786Z,13.80
2018-10-01T03:37:46.773Z,13.50
2018-10-01T03:38:46.774Z,14.30
2018-10-01T03:39:46.751Z,14.40
2018-10-01T03:40:46.742Z,15.00
2018-10-01T03:41:46.731Z,15.50
2018-10-01T03:42:46.719Z,14.20
2018-10-01T03:43:46.718Z,16.20
2018-10-01T03:44:46.695Z,14.80
2018-10-01T03:45:46.684Z,14.70
2018-10-01T03:46:46.673Z,16.50
2018-10-01T03:47:46.663Z,15.80
2018-10-01T03:48:46.680Z,14.90
2018-10-01T03:49:46.641Z,14.80
2018-10-01T03:50:46.629Z,14.90
2018-10-01T03:51:46.618Z,15.30
2018-10-01T03:52:46.607Z,14.60
2018-10-01T03:53:46.606Z,15.60
2018-10-01T03:54:46.585Z,15.10
2018-10-01T03:55:46.574Z,16.10
2018-10-01T03:56:46.563Z,16.00
2018-10-01T03:57:46.556Z,14.90
2018-10-01T03:58:46.558Z,15.20
2018-10-01T03:59:46.541Z,15.80
2018-10-01T04:00:46.541Z,15.00
2018-10-01T04:01:46.506Z,15.60
2018-10-01T04:02:46.497Z,15.30
2018-10-01T04:03:46.571Z,15.40
2018-10-01T04:04:46.475Z,15.30
2018-10-01T04:05:46.463Z,15.60
2018-10-01T04:06:46.458Z,15.60
2018-10-01T04:07:46.441Z,15.50
2018-10-01T04:08:46.488Z,15.10
2018-10-01T04:09:46.429Z,15.10
2018-10-01T04:10:46.410Z,15.20
2018-10-01T04:11:46.397Z,16.60
2018-10-01T04:12:46.388Z,14.80
2018-10-01T04:13:46.374Z,15.40
2018-10-01T04:14:46.373Z,15.20
2018-10-01T04:15:46.353Z,15.30
2018-10-01T04:16:46.352Z,15.50
2018-10-01T04:17:46.334Z,15.60
2018-10-01T04:18:46.319Z,15.70
2018-10-01T04:19:46.320Z,15.70
2018-10-01T04:20:46.301Z,15.50
2018-10-01T04:21:46.288Z,15.00
2018-10-01T04:22:46.344Z,15.70
2018-10-01T04:23:46.267Z,16.00
2018-10-01T04:24:46.272Z,15.20
2018-10-01T04:25:46.243Z,15.90
2018-10-01T04:26:46.233Z,15.80
2018-10-01T04:27:46.220Z,15.60
2018-10-01T04:28:46.208Z,15.20
2018-10-01T04:29:46.208Z,15.40
2018-10-01T04:30:46.187Z,15.60
2018-10-01T04:31:46.175Z,16.00
2018-10-01T04:32:46.164Z,15.20
2018-10-01T04:33:46.156Z,15.40
2018-10-01T04:34:46.153Z,15.10
2018-10-01T04:35:46.132Z,15.20
2018-10-01T04:36:46.120Z,14.70
2018-10-01T04:37:46.109Z,15.00
2018-10-01T04:38:46.101Z,14.80
2018-10-01T04:39:46.099Z,16.20
2018-10-01T04:40:46.174Z,15.90
2018-10-01T04:41:46.067Z,15.50
2018-10-01T04:42:46.082Z,15.30
2018-10-01T04:43:46.045Z,15.40
2018-10-01T04:44:46.042Z,15.40
2018-10-01T04:45:46.021Z,15.70
2018-10-01T04:46:46.055Z,16.00
2018-10-01T04:47:46.000Z,15.50
2018-10-01T04:48:45.988Z,15.90
2018-10-01T04:49:45.987Z,15.80
2018-10-01T04:50:45.968Z,16.00
2018-10-01T04:51:45.968Z,15.10
2018-10-01T04:52:45.944Z,15.50
2018-10-01T04:53:45.934Z,15.40
2018-10-01T04:54:45.932Z,15.10
2018-10-01T04:55:45.919Z,15.60
2018-10-01T04:56:45.900Z,15.10
2018-10-01T04:57:45.892Z,15.30
2018-10-01T04:58:45.879Z,15.40
2018-10-01T04:59:45.879Z,15.50
2018-10-01T05:00:45.858Z,15.20
2018-10-01T05:01:45.850Z,15.40
2018-10-01T05:02:45.849Z,15.80
2018-10-01T05:03:45.824Z,15.00
2018-10-01T05:04:45.841Z,16.00
2018-10-01T05:05:45.800Z,16.70
2018-10-01T05:06:45.789Z,16.60
2018-10-01T05:07:45.782Z,17.40
2018-10-01T05:08:45.769Z,17.60
2018-10-01T05:09:45.775Z,18.30
2018-10-01T05:10:45.748Z,17.90
2018-10-01T05:11:45.738Z,18.20
2018-10-01T05:12:45.728Z,17.80
2018-10-01T05:13:45.721Z,18.50
2018-10-01T05:14:45.784Z,18.60
2018-10-01T05:15:45.693Z,18.30
2018-10-01T05:16:45.682Z,18.70
2018-10-01T05:17:45.673Z,19.00
2018-10-01T05:18:45.659Z,18.80
2018-10-01T05:19:45.658Z,18.70
2018-10-01T05:20:45.637Z,18.90
2018-10-01T05:21:45.625Z,18.00
2018-10-01T05:22:45.615Z,18.60
2018-10-01T05:23:45.603Z,18.90
2018-10-01T05:24:45.615Z,18.80
2018-10-01T05:25:45.582Z,18.40
2018-10-01T05:26:45.572Z,18.90
2018-10-01T05:27:45.560Z,19.00
2018-10-01T05:28:45.549Z,18.50
2018-10-01T05:29:45.553Z,18.90
2018-10-01T05:30:45.526Z,19.70
2018-10-01T05:31:45.516Z,20.20
2018-10-01T05:32:45.501Z,19.60
2018-10-01T05:33:45.493Z,19.60
2018-10-01T05:34:45.497Z,20.20
2018-10-01T05:35:45.472Z,20.70
2018-10-01T05:36:45.462Z,21.40
2018-10-01T05:37:45.519Z,20.40
2018-10-01T05:38:45.437Z,21.80
2018-10-01T05:39:45.436Z,22.50
2018-10-01T05:40:45.416Z,21.50
2018-10-01T05:41:45.406Z,22.50
2018-10-01T05:42:45.399Z,22.50
2018-10-01T05:43:45.386Z,22.80
2018-10-01T05:44:45.420Z,22.30
2018-10-01T05:45:45.361Z,22.80
2018-10-01T05:46:45.351Z,22.40
2018-10-01T05:47:45.340Z,22.40
2018-10-01T05:48:45.331Z,23.00
2018-10-01T05:49:45.333Z,23.50
2018-10-01T05:50:45.313Z,22.80
2018-10-01T05:51:45.296Z,23.50
2018-10-01T05:52:45.285Z,23.40
2018-10-01T05:53:45.277Z,23.30
2018-10-01T05:54:45.273Z,23.20
2018-10-01T05:55:45.263Z,22.20
2018-10-01T05:56:45.265Z,23.60
2018-10-01T05:57:45.246Z,23.30
2018-10-01T05:58:45.224Z,22.70
2018-10-01T05:59:45.227Z,22.80
2018-10-01T06:00:45.197Z,23.20
2018-10-01T06:01:45.186Z,22.50
2018-10-01T06:02:45.176Z,23.10
2018-10-01T06:03:45.175Z,22.10
2018-10-01T06:04:45.214Z,22.90
2018-10-01T06:05:45.152Z,23.40
2018-10-01T06:06:45.131Z,21.50
2018-10-01T06:07:45.121Z,21.60
2018-10-01T06:08:45.111Z,22.30
2018-10-01T06:09:45.102Z,21.60
2018-10-01T06:10:45.097Z,20.70
2018-10-01T06:11:45.135Z,21.20
2018-10-01T06:12:45.065Z,21.30
2018-10-01T06:13:45.058Z,19.80
2018-10-01T06:14:45.046Z,19.50
2018-10-01T06:15:45.042Z,19.10
2018-10-01T06:16:45.019Z,19.40
2018-10-01T06:17:45.007Z,19.80
2018-10-01T06:18:45.004Z,19.10
2018-10-01T06:19:44.987Z,19.00
2018-10-01T06:20:44.998Z,18.70
2018-10-01T06:21:44.976Z,18.80
2018-10-01T06:22:44.952Z,18.50
2018-10-01T06:23:44.942Z,19.20
2018-10-01T06:24:44.932Z,18.50
2018-10-01T06:25:44.935Z,18.10
2018-10-01T06:26:44.910Z,18.20
2018-10-01T06:27:44.899Z,18.60
2018-10-01T06:28:44.890Z,18.40
2018-10-01T06:29:44.877Z,17.50
2018-10-01T06:30:44.881Z,17.70
2018-10-01T06:31:44.854Z,18.00
2018-10-01T06:32:44.850Z,18.00
2018-10-01T06:33:44.832Z,17.90
2018-10-01T06:34:44.823Z,17.80
2018-10-01T06:35:44.822Z,18.50
2018-10-01T06:36:44.799Z,17.10
2018-10-01T06:37:44.797Z,16.70
2018-10-01T06:38:44.777Z,17.90
2018-10-01T06:39:44.767Z,16.50
2018-10-01T06:40:44.766Z,16.90
2018-10-01T06:41:44.816Z,17.10
2018-10-01T06:42:44.736Z,16.90
2018-10-01T06:43:44.729Z,17.10
2018-10-01T06:44:44.738Z,17.20
2018-10-01T06:45:44.710Z,17.10
2018-10-01T06:46:44.690Z,16.90
2018-10-01T06:47:44.679Z,16.80
2018-10-01T06:48:44.670Z,16.60
2018-10-01T06:49:44.655Z,16.40
2018-10-01T06:50:44.664Z,16.20
2018-10-01T06:51:44.636Z,16.70
2018-10-01T06:52:44.624Z,16.20
2018-10-01T06:53:44.613Z,16.30
2018-10-01T06:54:44.602Z,15.70
2018-10-01T06:55:44.612Z,16.10
2018-10-01T06:56:44.583Z,15.50
2018-10-01T06:57:44.568Z,16.10
2018-10-01T06:58:44.557Z,15.80
2018-10-01T06:59:44.547Z,16.40
2018-10-01T07:00:44.547Z,15.00
2018-10-01T07:01:44.532Z,15.70
2018-10-01T07:02:44.513Z,15.40
2018-10-01T07:03:44.535Z,15.10
2018-10-01T07:04:44.492Z,15.10
2018-10-01T07:05:44.658Z,15.60
2018-10-01T07:06:44.477Z,14.80
2018-10-01T07:07:44.460Z,14.80
2018-10-01T07:08:44.475Z,14.60
2018-10-01T07:09:44.436Z,14.40
2018-10-01T07:10:44.438Z,14.90
2018-10-01T07:11:44.485Z,14.30
2018-10-01T07:12:44.404Z,14.60
2018-10-01T07:13:44.394Z,14.40
2018-10-01T07:14:44.382Z,14.90
2018-10-01T07:15:44.382Z,13.80
2018-10-01T07:16:44.366Z,14.10
2018-10-01T07:17:44.353Z,13.70
2018-10-01T07:18:44.343Z,14.00
2018-10-01T07:19:44.328Z,13.20
2018-10-01T07:20:44.328Z,14.60
2018-10-01T07:21:44.311Z,13.50
2018-10-01T07:22:44.330Z,13.80
2018-10-01T07:23:44.306Z,14.10
2018-10-01T07:24:44.274Z,13.50
2018-10-01T07:25:44.272Z,13.60
2018-10-01T07:26:44.261Z,13.40
2018-10-01T07:27:44.268Z,13.70
2018-10-01T07:28:44.256Z,14.00
2018-10-01T07:29:44.222Z,14.10
2018-10-01T07:30:44.249Z,14.60
2018-10-01T07:31:44.209Z,13.80
2018-10-01T07:32:44.207Z,14.50
2018-10-01T07:33:44.221Z,14.00
2018-10-01T07:34:44.179Z,14.20
2018-10-01T07:35:44.167Z,14.50
2018-10-01T07:36:44.188Z,14.00
2018-10-01T07:37:44.136Z,14.20
2018-10-01T07:38:44.120Z,13.60
2018-10-01T07:39:44.112Z,14.10
2018-10-01T07:40:44.125Z,14.00
2018-10-01T07:41:44.087Z,13.70
2018-10-01T07:42:44.082Z,13.80
2018-10-01T07:43:44.065Z,13.50
2018-10-01T07:44:44.081Z,14.00
2018-10-01T07:45:44.051Z,13.80
2018-10-01T07:46:44.045Z,14.20
2018-10-01T07:47:44.023Z,13.70
2018-10-01T07:48:44.036Z,13.70
2018-10-01T07:49:44.000Z,13.90
2018-10-01T07:50:44.039Z,14.40
2018-10-01T07:51:43.999Z,13.10
2018-10-01T07:52:43.969Z,13.30
2018-10-01T07:53:43.956Z,13.20
2018-10-01T07:54:43.943Z,13.00
2018-10-01T07:55:43.935Z,12.50
2018-10-01T07:56:43.935Z,12.80
2018-10-01T07:57:43.920Z,13.30
2018-10-01T07:58:43.901Z,13.80
2018-10-01T07:59:43.954Z,14.00
2018-10-01T08:00:43.882Z,12.70
2018-10-01T08:01:43.878Z,13.10
2018-10-01T08:02:43.864Z,13.40
2018-10-01T08:03:43.864Z,13.60
2018-10-01T08:04:43.840Z,13.40
2018-10-01T08:05:43.827Z,13.50
2018-10-01T08:06:43.865Z,13.30
2018-10-01T08:07:43.808Z,13.20
2018-10-01T08:08:43.975Z,13.10
2018-10-01T08:09:43.781Z,12.90
2018-10-01T08:10:43.770Z,12.60
2018-10-01T08:11:43.821Z,12.90
2018-10-01T08:12:43.748Z,12.60
2018-10-01T08:13:43.738Z,12.40
2018-10-01T08:14:43.745Z,12.60
2018-10-01T08:15:43.767Z,12.50
2018-10-01T08:16:43.717Z,13.10
2018-10-01T08:17:43.693Z,13.90
2018-10-01T08:18:43.682Z,12.80
2018-10-01T08:19:43.677Z,13.80
2018-10-01T08:20:43.662Z,12.80
2018-10-01T08:21:43.660Z,13.30
2018-10-01T08:22:43.639Z,13.40
2018-10-01T08:23:43.747Z,12.90
2018-10-01T08:24:43.628Z,12.60
2018-10-01T08:25:43.608Z,12.90
2018-10-01T08:26:43.689Z,11.90
2018-10-01T08:27:43.588Z,12.70
2018-10-01T08:28:43.574Z,12.70
2018-10-01T08:29:43.675Z,12.00
2018-10-01T08:30:43.552Z,11.90
2018-10-01T08:31:43.559Z,10.70
2018-10-01T08:32:43.532Z,11.30
2018-10-01T08:33:43.525Z,10.80
2018-10-01T08:34:43.511Z,11.20
2018-10-01T08:35:43.497Z,11.10
2018-10-01T08:36:43.490Z,9.80
2018-10-01T08:37:43.489Z,10.20
2018-10-01T08:38:43.584Z,10.40
2018-10-01T08:39:43.454Z,10.40
2018-10-01T08:40:43.442Z,10.40
2018-10-01T08:41:43.431Z,9.90
2018-10-01T08:42:43.431Z,9.90
2018-10-01T08:43:43.418Z,10.10
2018-10-01T08:44:43.397Z,9.60
2018-10-01T08:45:43.442Z,10.20
2018-10-01T08:46:43.375Z,10.10
2018-10-01T08:47:43.401Z,9.60
2018-10-01T08:48:43.359Z,10.10
2018-10-01T08:49:43.340Z,9.80
2018-10-01T08:50:43.335Z,9.50
2018-10-01T08:51:43.387Z,10.00
2018-10-01T08:52:43.317Z,9.50
2018-10-01T08:53:43.295Z,9.60
2018-10-01T08:54:43.284Z,9.50
2018-10-01T08:55:43.271Z,9.80
2018-10-01T08:56:43.261Z,9.30
2018-10-01T08:57:43.262Z,9.30
2018-10-01T08:58:43.242Z,9.60
2018-10-01T08:59:43.233Z,9.30
2018-10-01T09:00:43.215Z,9.30
2018-10-01T09:01:43.203Z,9.60
2018-10-01T09:02:43.209Z,9.20
2018-10-01T09:03:43.185Z,8.80
2018-10-01T09:04:43.176Z,8.90
2018-10-01T09:05:43.172Z,10.10
2018-10-01T09:06:43.213Z,9.70
2018-10-01T09:07:43.155Z,9.80
2018-10-01T09:08:43.123Z,9.90
2018-10-01T09:09:43.120Z,9.20
2018-10-01T09:10:43.120Z,9.60
2018-10-01T09:11:43.092Z,8.30
2018-10-01T09:12:43.087Z,8.20
2018-10-01T09:13:43.064Z,8.30
2018-10-01T09:14:43.175Z,8.20
2018-10-01T09:15:43.044Z,8.20
2018-10-01T09:16:43.036Z,7.80
2018-10-01T09:17:43.029Z,8.10
2018-10-01T09:18:43.008Z,7.80
2018-10-01T09:19:42.995Z,7.60
2018-10-01T09:20:43.081Z,6.80
2018-10-01T09:21:42.982Z,6.70
2018-10-01T09:22:42.979Z,6.50
2018-10-01T09:23:42.952Z,6.60
2018-10-01T09:24:42.939Z,6.60
2018-10-01T09:25:42.932Z,6.80
2018-10-01T09:26:42.924Z,7.20
2018-10-01T09:27:42.925Z,7.10
2018-10-01T09:28:42.894Z,6.90
2018-10-01T09:29:42.881Z,6.80
2018-10-01T09:30:42.875Z,6.80
2018-10-01T09:31:42.869Z,6.10
2018-10-01T09:32:42.862Z,6.50
2018-10-01T09:33:42.837Z,6.50
2018-10-01T09:34:42.830Z,7.00
2018-10-01T09:35:42.814Z,6.30
2018-10-01T09:36:42.804Z,6.10
2018-10-01T09:37:42.804Z,6.20
2018-10-01T09:38:42.791Z,7.00
2018-10-01T09:39:42.784Z,6.70
2018-10-01T09:40:42.757Z,6.70
2018-10-01T09:41:42.758Z,6.30
2018-10-01T09:42:42.746Z,6.20
2018-10-01T09:43:42.727Z,6.30
2018-10-01T09:44:42.712Z,6.60
2018-10-01T09:45:42.706Z,6.50
2018-10-01T09:46:42.689Z,6.10
2018-10-01T09:47:42.689Z,6.30
2018-10-01T09:48:42.666Z,5.80
2018-10-01T09:49:42.656Z,5.60
2018-10-01T09:50:42.680Z,6.20
2018-10-01T09:51:42.635Z,5.70
2018-10-01T09:52:42.634Z,5.90
2018-10-01T09:53:42.648Z,6.00
2018-10-01T09:54:42.601Z,6.10
2018-10-01T09:55:42.613Z,6.10
2018-10-01T09:58:15.060Z,6.50
2018-10-01T09:58:51.302Z,6.80
2018-10-01T09:59:51.285Z,7.20
2018-10-01T10:00:51.292Z,6.60
2018-10-01T10:01:51.263Z,6.00
2018-10-01T10:02:51.268Z,4.30
2018-10-01T10:03:51.304Z,5.60
2018-10-01T10:04:51.341Z,4.60
2018-10-01T10:05:51.223Z,4.60
2018-10-01T10:06:51.234Z,4.90
2018-10-01T10:07:51.206Z,5.20
2018-10-01T10:08:51.200Z,4.70
2018-10-01T10:09:51.176Z,4.70
2018-10-01T10:10:51.176Z,4.30
2018-10-01T10:11:51.163Z,4.60
2018-10-01T10:12:51.143Z,4.40
2018-10-01T10:13:51.136Z,3.90
2018-10-01T10:14:51.119Z,3.80
2018-10-01T10:15:51.112Z,4.30
2018-10-01T10:16:51.223Z,4.10
2018-10-01T10:17:51.105Z,4.20
2018-10-01T10:18:51.085Z,4.30
2018-10-01T10:19:51.070Z,4.10
2018-10-01T10:20:51.055Z,4.30
2018-10-01T10:21:51.053Z,4.30
2018-10-01T10:22:51.030Z,3.90
2018-10-01T10:23:51.021Z,4.50
2018-10-01T10:24:51.020Z,4.30
2018-10-01T10:25:50.998Z,4.50
2018-10-01T10:26:50.999Z,3.90
2018-10-01T10:27:50.976Z,4.10
2018-10-01T10:28:50.964Z,4.70
2018-10-01T10:29:50.997Z,4.40
2018-10-01T10:30:50.945Z,4.40
2018-10-01T10:31:50.948Z,4.20
2018-10-01T10:32:50.921Z,4.30
2018-10-01T10:33:50.909Z,4.40
2018-10-01T10:34:50.900Z,4.10
2018-10-01T10:35:50.888Z,4.50
2018-10-01T10:36:50.886Z,4.60
2018-10-01T10:37:50.863Z,4.10
2018-10-01T10:38:50.853Z,4.70
2018-10-01T10:39:50.842Z,4.10
2018-10-01T10:40:50.861Z,4.10
2018-10-01T10:41:50.900Z,4.30
2018-10-01T10:42:50.810Z,4.30
2018-10-01T10:43:50.797Z,5.00
2018-10-01T10:44:50.788Z,5.00
2018-10-01T10:45:50.776Z,4.60
2018-10-01T10:48:28.718Z,4.00
2018-10-01T10:48:59.461Z,4.50
2018-10-01T10:49:59.483Z,5.10
2018-10-01T10:50:59.435Z,4.30
2018-10-01T10:51:59.438Z,4.60
2018-10-01T10:52:59.429Z,4.60
2018-10-01T10:53:59.401Z,4.10
2018-10-01T10:54:59.390Z,4.00
2018-10-01T10:55:59.428Z,4.80
2018-10-01T10:56:59.394Z,4.30
2018-10-01T10:57:59.367Z,4.90
2018-10-01T10:58:59.350Z,4.10
2018-10-01T10:59:59.334Z,4.70
2018-10-01T11:00:59.322Z,3.90
2018-10-01T11:01:59.362Z,3.80
2018-10-01T11:02:59.310Z,3.80
2018-10-01T11:03:59.293Z,3.80
2018-10-01T11:04:59.282Z,4.00
2018-10-01T11:05:59.268Z,3.70
2018-10-01T11:06:59.256Z,4.00
2018-10-01T11:07:59.296Z,4.00
2018-10-01T11:08:59.232Z,4.20
2018-10-01T11:09:59.223Z,4.00
2018-10-01T11:10:59.207Z,4.60
2018-10-01T11:11:59.203Z,4.30
2018-10-01T11:12:59.184Z,4.60
2018-10-01T11:13:59.395Z,4.70
2018-10-01T11:14:59.256Z,4.60
2018-10-01T11:15:59.150Z,4.90
2018-10-01T11:16:59.139Z,5.10
2018-10-01T11:17:59.246Z,4.80
2018-10-01T11:18:59.291Z,4.80
2018-10-01T11:19:59.156Z,4.80
2018-10-01T11:20:59.173Z,5.10
2018-10-01T11:21:59.179Z,5.10
2018-10-01T11:22:59.068Z,5.10
2018-10-01T11:23:59.068Z,5.40
2018-10-01T11:24:59.048Z,5.00
2018-10-01T11:25:59.038Z,4.50
2018-10-01T11:26:59.073Z,4.40
2018-10-01T11:27:59.012Z,4.90
2018-10-01T11:28:59.038Z,4.60
2018-10-01T11:29:58.990Z,4.90
2018-10-01T11:30:58.979Z,4.10
2018-10-01T11:31:59.023Z,4.40
2018-10-01T11:32:58.962Z,3.70
2018-10-01T11:33:58.956Z,4.10
2018-10-01T11:34:59.122Z,4.30
2018-10-01T11:35:58.923Z,4.20
2018-10-01T11:36:58.910Z,4.50
2018-10-01T11:37:58.901Z,4.40
2018-10-01T11:38:58.911Z,4.10
2018-10-01T11:39:58.877Z,3.90
2018-10-01T11:40:58.865Z,4.10
2018-10-01T11:41:58.855Z,4.20
2018-10-01T11:42:58.849Z,4.10
2018-10-01T11:43:58.843Z,4.20
2018-10-01T11:44:58.849Z,4.50
2018-10-01T11:45:58.809Z,4.40
2018-10-01T11:46:58.802Z,4.00
2018-10-01T11:47:58.787Z,4.20
2018-10-01T11:48:58.785Z,3.90
2018-10-01T11:49:58.765Z,4.30
2018-10-01T11:50:58.819Z,4.60
2018-10-01T11:51:58.746Z,4.40
2018-10-01T11:52:58.729Z,4.20
2018-10-01T11:53:58.731Z,3.80
2018-10-01T11:54:58.737Z,4.40
2018-10-01T11:55:58.697Z,4.30
2018-10-01T11:56:58.704Z,4.30
2018-10-01T11:57:58.674Z,4.00
2018-10-01T11:58:58.675Z,3.50
2018-10-01T11:59:58.651Z,3.90
2018-10-01T12:00:58.639Z,4.10
2018-10-01T12:01:58.630Z,4.30
2018-10-01T12:02:58.633Z,3.60
2018-10-01T12:03:58.742Z,4.10
2018-10-01T12:04:58.598Z,4.10
2018-10-01T12:05:58.587Z,4.00
2018-10-01T12:06:58.575Z,3.60
2018-10-01T12:07:58.559Z,3.40
2018-10-01T12:08:58.588Z,3.30
2018-10-01T12:09:58.570Z,3.50
2018-10-01T12:10:58.527Z,3.30
2018-10-01T12:11:58.515Z,3.70
2018-10-01T12:12:58.507Z,3.80
2018-10-01T12:13:58.507Z,3.60
2018-10-01T12:14:58.528Z,3.40
2018-10-01T12:15:58.659Z,3.40
2018-10-01T12:16:58.460Z,3.10
2018-10-01T12:17:58.494Z,3.50
2018-10-01T12:18:58.450Z,3.60
2018-10-01T12:19:58.424Z,3.20
2018-10-01T12:20:58.454Z,6.70
2018-10-01T12:21:58.469Z,3.20
2018-10-01T12:22:58.390Z,3.80
2018-10-01T12:23:58.391Z,3.00
2018-10-01T12:24:58.434Z,2.80
2018-10-01T12:25:58.358Z,2.60
2018-10-01T12:26:58.350Z,2.60
2018-10-01T12:27:58.334Z,2.90
2018-10-01T12:28:58.381Z,2.70
2018-10-01T12:29:58.312Z,2.40
2018-10-01T12:30:58.300Z,2.60
2018-10-01T12:31:58.289Z,2.50
2018-10-01T12:32:58.300Z,2.00
2018-10-01T12:33:58.278Z,2.20
2018-10-01T12:34:58.323Z,2.30
2018-10-01T12:35:58.256Z,2.40
2018-10-01T12:36:58.233Z,2.20
2018-10-01T12:37:58.224Z,2.60
2018-10-01T12:38:58.259Z,2.40
2018-10-01T12:39:58.211Z,2.30
2018-10-01T12:40:58.187Z,2.00
2018-10-01T12:41:58.177Z,2.20
2018-10-01T12:42:58.281Z,2.20
2018-10-01T12:43:58.168Z,2.20
2018-10-01T12:44:58.210Z,2.20
2018-10-01T12:45:58.129Z,2.20
2018-10-01T12:46:58.121Z,2.00
2018-10-01T12:47:58.107Z,2.50
2018-10-01T12:48:58.115Z,2.40
2018-10-01T12:49:58.090Z,2.30
2018-10-01T12:50:58.094Z,2.00
2018-10-01T12:51:58.073Z,2.20
2018-10-01T12:52:58.053Z,2.20
2018-10-01T12:53:58.039Z,2.60
2018-10-01T12:54:58.051Z,2.40
2018-10-01T12:55:58.071Z,2.80
2018-10-01T12:56:58.045Z,2.40
2018-10-01T12:57:57.997Z,4.50
2018-10-01T12:58:57.987Z,2.50
2018-10-01T12:59:57.985Z,2.50
2018-10-01T13:00:57.961Z,2.40
2018-10-01T13:01:57.951Z,2.40
2018-10-01T13:02:57.940Z,2.50
2018-10-01T13:03:57.930Z,2.60
2018-10-01T13:04:57.941Z,2.40
2018-10-01T13:05:57.908Z,2.40
2018-10-01T13:06:57.896Z,2.20
2018-10-01T13:07:57.885Z,2.40
2018-10-01T13:08:57.871Z,2.60
2018-10-01T13:09:57.868Z,2.10
2018-10-01T13:10:57.848Z,1.80